Denton, KY (41132)

12:08 AM EST on February 07, 2016 (GMT -0500)
Marathon Petroleum Savage Branch Nature Reserve | | Change Station
CLOSE
Current Station
Personal Weather Station
Location: Catlettsburg, KY
Elevation: 584 ft
Nearby Weather Stations

Elev 584 ft 38.34 °N, 82.61 °W | Updated 23 minutes ago

Clear
Clear
26.6 °F
Feels Like 27 °F
N
0.0
Wind Variable Wind from WSW
Gusts 1.0 mph

Today
High -- | Low -- °F
--% Chance of Precip.
Yesterday
High -- | Low -- °F
Precip. -- in
Pressure 30.24 in
Visibility 10.0 miles
Clouds Clear
Windchill 27 °F
Dew Point 24 °F
Humidity 90%
Rainfall in
Snow Depth Not available.
7:31 AM 6:00 PM
Waning Crescent, 3% visible
METAR KHTS 070451Z 00000KT 10SM CLR 02/M05 A3023 RMK AO2 SLP240 T00171050 401001028
Pressure 30.24 in
Visibility 10.0 miles
Clouds Clear
Windchill 27 °F
Dew Point 24 °F
Humidity 90%
Rainfall in
Snow Depth Not available.
7:31 AM 6:00 PM
Waning Crescent, 3% visible
METAR KHTS 070451Z 00000KT 10SM CLR 02/M05 A3023 RMK AO2 SLP240 T00171050 401001028

10-Day Weather Forecast

Almanac

Astronomy

Feb. 07, 2016 Rise Set
Actual Time
Civil Twilight
Nautical Twilight
Astronomical Twilight
Moon
Length of Visible Light
Length of Day
Tomorrow will be .
, % of the Moon is Illuminated

Today's Extremes

State Highs State Lows

Community

WunderPhotos

Upload Photos

1,891,157 photos uploaded!

WunderBlog® & News

Nearby

Air Quality

  Air Quality AQ Index Pollutant
Not available.

Snow Depth

Station Depth Elevation

Earthquake Activity

City Distance Mag. Time & Date
Minimum magnitude displayed is 2.5.

Coastal Water Temperatures

Place Temperature

Stations

Nearby Weather Stations

Station Location Temp. Windchill Dew Point Humidity Wind Precip. Elev Updated Type
                   

Watches & Warnings

There are currently no watches in effect.